Aviation Digital Data Service (ADDS)

Output produced by TAFs form (0956 UTC 22 September 2017)
found at http://www.aviationweather.gov/adds/tafs/
 
METAR text: ZSAM 220900Z 17004MPS CAVOK 30/24 Q1010 NOSIG
Conditions at: ZSAM (XIAMEN , CN) observed 0900 UTC 22 September 2017
Temperature: 30.0°C (86°F)
Dewpoint: 24.0°C (75°F) [RH = 70%]
Pressure (altimeter): 29.82 inches Hg (1010.0 mb)
Winds: from the S (170 degrees) at 9 MPH (8 knots; 4.2 m/s)
Visibility: 6 or more miles (10+ km)
Ceiling: ceiling and visibility are OK
Clouds: unknown
Weather: no significant weather observed at this time

Forecast for: ZSAM (XIAMEN , CN)
Text: TAF ZSAM 220303Z 2206/2306 13003MPS 6000 BKN025 TX34/2206Z TN28/2221Z
Forecast period: 0600 UTC 22 September 2017 to 0600 UTC 23 September 2017
Forecast type: FROM: standard forecast or significant change
Winds: from the SE (130 degrees) at 7 MPH (6 knots; 3.1 m/s)
Visibility: 4 miles (6 km)
Ceiling: 2500 feet AGL
Clouds: broken clouds at 2500 feet AGL
Weather: no significant weather forecast for this period
Text: TEMPO 2206/2212 FEW023CB BKN025
Forecast period: 0600 to 1200 UTC 22 September 2017
Forecast type: TEMPORARY: The following changes expected for less than half the time period
Ceiling: 2500 feet AGL
Clouds: few clouds at 2300 feet AGL
broken clouds at 2500 feet AGL
Weather: no significant weather forecast for this period